sensor_id;sensor_type;location;lat;lon;timestamp;pressure;altitude;pressure_sealevel;temperature;humidity
6942;BME280;3510;43.200;27.920;2023-04-15T00:01:33;100439.50;;;23.89;36.42
6942;BME280;3510;43.200;27.920;2023-04-15T00:04:01;100453.88;;;23.50;37.50
6942;BME280;3510;43.200;27.920;2023-04-15T00:06:29;100452.19;;;23.50;37.48
6942;BME280;3510;43.200;27.920;2023-04-15T00:08:56;100448.66;;;23.47;37.25
6942;BME280;3510;43.200;27.920;2023-04-15T00:11:23;100430.25;;;23.96;36.63
6942;BME280;3510;43.200;27.920;2023-04-15T00:13:52;100444.81;;;24.33;35.87
6942;BME280;3510;43.200;27.920;2023-04-15T00:16:19;100447.06;;;23.83;36.88
6942;BME280;3510;43.200;27.920;2023-04-15T00:18:47;100456.72;;;24.30;36.48
6942;BME280;3510;43.200;27.920;2023-04-15T00:21:14;100457.28;;;24.17;37.18
6942;BME280;3510;43.200;27.920;2023-04-15T00:23:41;100459.84;;;23.17;39.13
6942;BME280;3510;43.200;27.920;2023-04-15T00:26:08;100360.81;;;23.25;38.04
6942;BME280;3510;43.200;27.920;2023-04-15T00:28:35;100445.09;;;24.09;37.20
6942;BME280;3510;43.200;27.920;2023-04-15T00:31:03;100445.13;;;23.73;37.75
6942;BME280;3510;43.200;27.920;2023-04-15T00:33:30;100418.47;;;23.38;38.08
6942;BME280;3510;43.200;27.920;2023-04-15T00:35:57;100470.06;;;23.46;38.38
6942;BME280;3510;43.200;27.920;2023-04-15T00:38:23;100462.72;;;23.59;38.10
6942;BME280;3510;43.200;27.920;2023-04-15T00:40:50;100473.50;;;23.78;37.78
6942;BME280;3510;43.200;27.920;2023-04-15T00:43:18;100452.06;;;23.77;37.69
6942;BME280;3510;43.200;27.920;2023-04-15T00:45:44;100451.91;;;23.71;37.81
6942;BME280;3510;43.200;27.920;2023-04-15T00:48:27;100481.09;;;23.43;38.75
6942;BME280;3510;43.200;27.920;2023-04-15T00:50:56;100459.59;;;23.39;38.41
6942;BME280;3510;43.200;27.920;2023-04-15T00:53:22;100471.00;;;23.81;37.51
6942;BME280;3510;43.200;27.920;2023-04-15T00:55:50;100469.13;;;23.75;37.78
6942;BME280;3510;43.200;27.920;2023-04-15T00:58:17;100440.16;;;23.81;37.09
6942;BME280;3510;43.200;27.920;2023-04-15T01:00:44;100474.50;;;24.21;37.10
6942;BME280;3510;43.200;27.920;2023-04-15T01:03:12;100435.13;;;23.52;37.62
6942;BME280;3510;43.200;27.920;2023-04-15T01:05:41;100474.00;;;24.35;37.14
6942;BME280;3510;43.200;27.920;2023-04-15T01:08:08;100452.88;;;24.11;36.88
6942;BME280;3510;43.200;27.920;2023-04-15T01:10:35;100475.50;;;24.26;37.11
6942;BME280;3510;43.200;27.920;2023-04-15T01:13:02;100436.09;;;24.28;36.37
6942;BME280;3510;43.200;27.920;2023-04-15T01:15:30;100441.63;;;23.71;37.63
6942;BME280;3510;43.200;27.920;2023-04-15T01:17:58;100452.56;;;23.99;37.13
6942;BME280;3510;43.200;27.920;2023-04-15T01:20:26;100394.50;;;23.37;37.23
6942;BME280;3510;43.200;27.920;2023-04-15T01:22:56;100464.91;;;23.77;38.04
6942;BME280;3510;43.200;27.920;2023-04-15T01:25:30;100466.91;;;23.24;38.38
6942;BME280;3510;43.200;27.920;2023-04-15T01:27:58;100440.22;;;23.84;37.49
6942;BME280;3510;43.200;27.920;2023-04-15T01:30:25;100444.34;;;24.13;36.93
6942;BME280;3510;43.200;27.920;2023-04-15T01:32:52;100460.03;;;23.88;37.65
6942;BME280;3510;43.200;27.920;2023-04-15T01:35:19;100456.81;;;23.63;37.29
6942;BME280;3510;43.200;27.920;2023-04-15T01:37:47;100464.78;;;24.07;36.67
6942;BME280;3510;43.200;27.920;2023-04-15T01:40:15;100471.25;;;24.28;36.29
6942;BME280;3510;43.200;27.920;2023-04-15T01:42:50;100470.66;;;23.67;37.31
6942;BME280;3510;43.200;27.920;2023-04-15T01:45:17;100468.78;;;23.30;38.29
6942;BME280;3510;43.200;27.920;2023-04-15T01:47:44;100443.91;;;23.95;36.69
6942;BME280;3510;43.200;27.920;2023-04-15T01:50:25;100432.81;;;23.63;37.00
6942;BME280;3510;43.200;27.920;2023-04-15T01:53:06;100459.41;;;23.65;37.26
6942;BME280;3510;43.200;27.920;2023-04-15T01:55:32;100421.72;;;23.65;36.56
6942;BME280;3510;43.200;27.920;2023-04-15T01:58:02;100445.94;;;22.79;37.99
6942;BME280;3510;43.200;27.920;2023-04-15T02:00:30;100433.41;;;22.31;38.73
6942;BME280;3510;43.200;27.920;2023-04-15T02:03:04;100459.09;;;23.53;37.11
6942;BME280;3510;43.200;27.920;2023-04-15T02:05:31;100463.28;;;24.17;35.77
6942;BME280;3510;43.200;27.920;2023-04-15T02:07:58;100468.28;;;24.47;35.65
6942;BME280;3510;43.200;27.920;2023-04-15T02:10:25;100431.84;;;24.29;35.28
6942;BME280;3510;43.200;27.920;2023-04-15T02:12:52;100457.50;;;23.89;36.60
6942;BME280;3510;43.200;27.920;2023-04-15T02:15:21;100461.38;;;24.45;35.42
6942;BME280;3510;43.200;27.920;2023-04-15T02:17:48;100455.09;;;24.33;35.37
6942;BME280;3510;43.200;27.920;2023-04-15T02:20:18;100465.38;;;24.70;35.11
6942;BME280;3510;43.200;27.920;2023-04-15T02:22:45;100463.44;;;24.23;36.27
6942;BME280;3510;43.200;27.920;2023-04-15T02:25:13;100424.69;;;24.15;36.19
6942;BME280;3510;43.200;27.920;2023-04-15T02:27:41;100441.47;;;24.37;36.17
6942;BME280;3510;43.200;27.920;2023-04-15T02:30:08;100447.31;;;24.30;36.35
6942;BME280;3510;43.200;27.920;2023-04-15T02:32:36;100474.50;;;24.57;36.33
6942;BME280;3510;43.200;27.920;2023-04-15T02:35:04;100459.28;;;24.66;35.73
6942;BME280;3510;43.200;27.920;2023-04-15T02:37:31;100433.88;;;24.42;35.80
6942;BME280;3510;43.200;27.920;2023-04-15T02:40:01;100447.03;;;24.18;36.64
6942;BME280;3510;43.200;27.920;2023-04-15T02:42:30;100395.94;;;23.61;37.01
6942;BME280;3510;43.200;27.920;2023-04-15T02:44:58;100460.44;;;24.06;36.87
6942;BME280;3510;43.200;27.920;2023-04-15T02:47:25;100473.31;;;24.41;36.24
6942;BME280;3510;43.200;27.920;2023-04-15T02:49:53;100450.16;;;24.05;36.98
6942;BME280;3510;43.200;27.920;2023-04-15T02:52:20;100466.63;;;24.13;37.04
6942;BME280;3510;43.200;27.920;2023-04-15T02:54:47;100432.44;;;23.81;37.39
6942;BME280;3510;43.200;27.920;2023-04-15T02:57:14;100481.59;;;23.95;37.62
6942;BME280;3510;43.200;27.920;2023-04-15T02:59:40;100439.75;;;24.00;37.17
6942;BME280;3510;43.200;27.920;2023-04-15T03:02:07;100378.44;;;23.46;37.15
6942;BME280;3510;43.200;27.920;2023-04-15T03:04:34;100476.72;;;23.39;38.76
6942;BME280;3510;43.200;27.920;2023-04-15T03:07:02;100482.53;;;23.02;39.80
6942;BME280;3510;43.200;27.920;2023-04-15T03:09:31;100480.66;;;23.26;39.33
6942;BME280;3510;43.200;27.920;2023-04-15T03:11:58;100432.69;;;22.65;40.19
6942;BME280;3510;43.200;27.920;2023-04-15T03:14:25;100464.94;;;22.85;40.01
6942;BME280;3510;43.200;27.920;2023-04-15T03:16:51;100469.50;;;22.94;40.14
6942;BME280;3510;43.200;27.920;2023-04-15T03:19:19;100466.53;;;22.52;41.53
6942;BME280;3510;43.200;27.920;2023-04-15T03:21:45;100447.44;;;22.15;42.14
6942;BME280;3510;43.200;27.920;2023-04-15T03:24:14;100410.84;;;22.48;41.13
6942;BME280;3510;43.200;27.920;2023-04-15T03:26:40;100470.25;;;22.91;40.93
6942;BME280;3510;43.200;27.920;2023-04-15T03:29:07;100424.31;;;22.42;41.54
6942;BME280;3510;43.200;27.920;2023-04-15T03:31:34;100467.63;;;22.90;40.90
6942;BME280;3510;43.200;27.920;2023-04-15T03:34:01;100446.50;;;22.99;40.78
6942;BME280;3510;43.200;27.920;2023-04-15T03:36:29;100460.66;;;22.84;41.76
6942;BME280;3510;43.200;27.920;2023-04-15T03:38:57;100447.38;;;22.40;42.75
6942;BME280;3510;43.200;27.920;2023-04-15T04:22:26;100478.81;;;22.09;42.55
6942;BME280;3510;43.200;27.920;2023-04-15T04:24:54;100478.91;;;22.93;40.75
6942;BME280;3510;43.200;27.920;2023-04-15T04:27:21;100475.50;;;22.94;40.60
6942;BME280;3510;43.200;27.920;2023-04-15T04:29:47;100502.63;;;23.16;40.71
6942;BME280;3510;43.200;27.920;2023-04-15T04:32:14;100434.38;;;22.63;40.65
6942;BME280;3510;43.200;27.920;2023-04-15T04:34:41;100463.50;;;22.93;40.30
6942;BME280;3510;43.200;27.920;2023-04-15T04:37:08;100497.88;;;23.29;39.80
6942;BME280;3510;43.200;27.920;2023-04-15T04:39:37;100500.63;;;23.66;39.30
6942;BME280;3510;43.200;27.920;2023-04-15T04:42:07;100477.22;;;23.26;39.43
6942;BME280;3510;43.200;27.920;2023-04-15T04:44:34;100508.34;;;23.06;39.98
6942;BME280;3510;43.200;27.920;2023-04-15T04:47:02;100491.13;;;22.74;40.37
6942;BME280;3510;43.200;27.920;2023-04-15T04:49:29;100442.31;;;22.15;41.34
6942;BME280;3510;43.200;27.920;2023-04-15T04:51:58;100453.78;;;22.55;40.48
6942;BME280;3510;43.200;27.920;2023-04-15T04:54:25;100513.84;;;22.34;41.46
6942;BME280;3510;43.200;27.920;2023-04-15T04:57:00;100483.25;;;22.69;40.50
6942;BME280;3510;43.200;27.920;2023-04-15T04:59:32;100428.19;;;23.16;39.04
6942;BME280;3510;43.200;27.920;2023-04-15T05:01:59;100375.25;;;22.60;38.86
6942;BME280;3510;43.200;27.920;2023-04-15T05:04:40;100507.63;;;23.42;39.15
6942;BME280;3510;43.200;27.920;2023-04-15T05:07:07;100510.38;;;23.48;38.97
6942;BME280;3510;43.200;27.920;2023-04-15T05:09:35;100509.69;;;23.87;38.62
6942;BME280;3510;43.200;27.920;2023-04-15T05:12:04;100508.56;;;23.44;39.55
6942;BME280;3510;43.200;27.920;2023-04-15T05:14:32;100510.56;;;23.87;39.04
6942;BME280;3510;43.200;27.920;2023-04-15T05:16:59;100507.56;;;24.05;38.87
6942;BME280;3510;43.200;27.920;2023-04-15T05:19:26;100478.09;;;23.26;39.85
6942;BME280;3510;43.200;27.920;2023-04-15T05:21:54;100505.69;;;22.75;41.27
6942;BME280;3510;43.200;27.920;2023-04-15T05:24:20;100508.47;;;22.82;41.52
6942;BME280;3510;43.200;27.920;2023-04-15T05:26:48;100403.88;;;22.43;41.00
6942;BME280;3510;43.200;27.920;2023-04-15T05:29:19;100401.41;;;22.18;40.86
6942;BME280;3510;43.200;27.920;2023-04-15T05:31:46;100457.75;;;22.45;41.07
6942;BME280;3510;43.200;27.920;2023-04-15T05:34:13;100390.84;;;22.66;39.86
6942;BME280;3510;43.200;27.920;2023-04-15T05:36:41;100454.16;;;23.27;39.46
6942;BME280;3510;43.200;27.920;2023-04-15T05:39:08;100482.19;;;23.19;39.81
6942;BME280;3510;43.200;27.920;2023-04-15T05:41:35;100505.47;;;23.57;39.38
6942;BME280;3510;43.200;27.920;2023-04-15T05:44:16;100486.69;;;23.60;39.19
6942;BME280;3510;43.200;27.920;2023-04-15T05:46:44;100500.56;;;23.03;40.83
6942;BME280;3510;43.200;27.920;2023-04-15T05:49:12;100494.47;;;23.30;40.16
6942;BME280;3510;43.200;27.920;2023-04-15T05:51:39;100541.19;;;23.48;39.49
6942;BME280;3510;43.200;27.920;2023-04-15T05:54:06;100548.38;;;21.69;43.05
6942;BME280;3510;43.200;27.920;2023-04-15T05:56:33;100567.19;;;21.95;43.04
6942;BME280;3510;43.200;27.920;2023-04-15T05:59:00;100569.03;;;23.33;40.16
6942;BME280;3510;43.200;27.920;2023-04-15T06:01:28;100583.09;;;22.34;41.66
6942;BME280;3510;43.200;27.920;2023-04-15T06:03:58;100527.34;;;21.54;43.40
6942;BME280;3510;43.200;27.920;2023-04-15T06:06:26;100543.75;;;20.67;45.42
6942;BME280;3510;43.200;27.920;2023-04-15T06:08:53;100580.81;;;21.68;44.27
6942;BME280;3510;43.200;27.920;2023-04-15T06:11:21;100531.13;;;20.94;45.33
6942;BME280;3510;43.200;27.920;2023-04-15T06:13:49;100539.03;;;20.14;47.67
6942;BME280;3510;43.200;27.920;2023-04-15T06:16:16;100484.34;;;19.29;48.90
6942;BME280;3510;43.200;27.920;2023-04-15T06:18:43;100539.75;;;20.11;48.13
6942;BME280;3510;43.200;27.920;2023-04-15T06:21:13;100562.59;;;20.69;47.09
6942;BME280;3510;43.200;27.920;2023-04-15T06:23:41;100607.44;;;20.61;48.29
6942;BME280;3510;43.200;27.920;2023-04-15T06:26:15;100605.00;;;20.43;48.53
6942;BME280;3510;43.200;27.920;2023-04-15T06:28:42;100586.88;;;20.58;48.33
6942;BME280;3510;43.200;27.920;2023-04-15T06:31:09;100599.28;;;20.70;48.15
6942;BME280;3510;43.200;27.920;2023-04-15T06:33:36;100551.31;;;20.43;48.17
6942;BME280;3510;43.200;27.920;2023-04-15T06:36:04;100599.41;;;20.52;48.53
6942;BME280;3510;43.200;27.920;2023-04-15T06:38:48;100600.59;;;20.83;48.55
6942;BME280;3510;43.200;27.920;2023-04-15T06:41:18;100609.28;;;21.54;46.52
6942;BME280;3510;43.200;27.920;2023-04-15T06:43:45;100600.00;;;22.05;45.90
6942;BME280;3510;43.200;27.920;2023-04-15T06:46:13;100589.41;;;21.94;45.92
6942;BME280;3510;43.200;27.920;2023-04-15T06:48:41;100592.59;;;21.63;46.46
6942;BME280;3510;43.200;27.920;2023-04-15T06:51:09;100592.94;;;21.50;47.02
6942;BME280;3510;43.200;27.920;2023-04-15T06:53:38;100581.91;;;23.06;43.87
6942;BME280;3510;43.200;27.920;2023-04-15T06:56:09;100567.06;;;22.68;44.18
6942;BME280;3510;43.200;27.920;2023-04-15T06:58:36;100596.69;;;22.86;44.21
6942;BME280;3510;43.200;27.920;2023-04-15T07:01:03;100591.09;;;22.98;43.85
6942;BME280;3510;43.200;27.920;2023-04-15T07:03:31;100559.13;;;23.16;42.92
6942;BME280;3510;43.200;27.920;2023-04-15T07:05:58;100541.91;;;22.30;44.18
6942;BME280;3510;43.200;27.920;2023-04-15T07:08:28;100601.03;;;23.44;42.38
6942;BME280;3510;43.200;27.920;2023-04-15T07:36:18;100631.75;;;24.34;40.88
6942;BME280;3510;43.200;27.920;2023-04-15T07:38:45;100612.41;;;23.54;42.03
6942;BME280;3510;43.200;27.920;2023-04-15T07:41:12;100632.13;;;24.15;41.39
6942;BME280;3510;43.200;27.920;2023-04-15T07:43:41;100549.81;;;24.48;40.21
6942;BME280;3510;43.200;27.920;2023-04-15T07:46:09;100637.75;;;25.44;38.59
6942;BME280;3510;43.200;27.920;2023-04-15T07:48:36;100602.44;;;25.80;37.84
6942;BME280;3510;43.200;27.920;2023-04-15T07:51:04;100590.06;;;26.10;37.21
6942;BME280;3510;43.200;27.920;2023-04-15T07:53:34;100553.72;;;27.08;35.43
6942;BME280;3510;43.200;27.920;2023-04-15T07:56:01;100638.59;;;27.43;35.19
6942;BME280;3510;43.200;27.920;2023-04-15T07:58:28;100576.63;;;27.50;34.93
6942;BME280;3510;43.200;27.920;2023-04-15T08:00:55;100593.06;;;27.54;35.44
6942;BME280;3510;43.200;27.920;2023-04-15T08:03:23;100587.41;;;27.87;34.68
6942;BME280;3510;43.200;27.920;2023-04-15T08:05:50;100632.25;;;28.88;33.59
6942;BME280;3510;43.200;27.920;2023-04-15T08:08:17;100593.50;;;27.94;34.70
6942;BME280;3510;43.200;27.920;2023-04-15T08:10:47;100630.31;;;26.00;37.97
6942;BME280;3510;43.200;27.920;2023-04-15T08:13:14;100644.88;;;26.45;37.31
6942;BME280;3510;43.200;27.920;2023-04-15T08:15:41;100648.03;;;25.42;39.42
6942;BME280;3510;43.200;27.920;2023-04-15T08:18:11;100548.84;;;23.77;41.27
6942;BME280;3510;43.200;27.920;2023-04-15T08:20:39;100630.28;;;24.79;39.64
6942;BME280;3510;43.200;27.920;2023-04-15T08:23:06;100610.19;;;25.40;38.64
6942;BME280;3510;43.200;27.920;2023-04-15T08:25:36;100636.53;;;26.60;37.20
6942;BME280;3510;43.200;27.920;2023-04-15T08:28:07;100632.47;;;26.75;36.90
6942;BME280;3510;43.200;27.920;2023-04-15T08:30:34;100623.06;;;26.81;36.11
6942;BME280;3510;43.200;27.920;2023-04-15T08:35:36;100536.88;;;27.39;34.39
6942;BME280;3510;43.200;27.920;2023-04-15T08:38:03;100616.31;;;26.89;34.98
6942;BME280;3510;43.200;27.920;2023-04-15T08:40:41;100619.94;;;25.54;37.65
6942;BME280;3510;43.200;27.920;2023-04-15T08:43:12;100626.56;;;25.42;37.86
6942;BME280;3510;43.200;27.920;2023-04-15T08:45:41;100571.44;;;24.23;40.08
6942;BME280;3510;43.200;27.920;2023-04-15T08:48:14;100614.03;;;23.80;40.39
6942;BME280;3510;43.200;27.920;2023-04-15T08:50:41;100622.22;;;24.30;39.48
6942;BME280;3510;43.200;27.920;2023-04-15T08:53:08;100599.22;;;24.36;39.20
6942;BME280;3510;43.200;27.920;2023-04-15T08:55:38;100595.53;;;24.98;38.34
6942;BME280;3510;43.200;27.920;2023-04-15T08:58:11;100625.75;;;25.85;37.31
6942;BME280;3510;43.200;27.920;2023-04-15T09:00:39;100659.22;;;26.81;35.42
6942;BME280;3510;43.200;27.920;2023-04-15T09:03:07;100651.25;;;27.21;35.00
6942;BME280;3510;43.200;27.920;2023-04-15T09:05:35;100636.63;;;27.95;34.19
6942;BME280;3510;43.200;27.920;2023-04-15T09:08:02;100647.47;;;27.63;34.84
6942;BME280;3510;43.200;27.920;2023-04-15T09:10:43;100644.31;;;27.87;34.36
6942;BME280;3510;43.200;27.920;2023-04-15T09:13:12;100623.81;;;27.33;35.29
6942;BME280;3510;43.200;27.920;2023-04-15T09:15:39;100649.16;;;27.60;34.76
6942;BME280;3510;43.200;27.920;2023-04-15T09:18:06;100605.84;;;25.79;37.11
6942;BME280;3510;43.200;27.920;2023-04-15T09:20:39;100635.00;;;26.71;36.33
6942;BME280;3510;43.200;27.920;2023-04-15T09:23:15;100647.53;;;27.06;35.17
6942;BME280;3510;43.200;27.920;2023-04-15T09:25:56;100648.19;;;26.39;35.58
6942;BME280;3510;43.200;27.920;2023-04-15T09:28:29;100639.84;;;27.09;34.46
6942;BME280;3510;43.200;27.920;2023-04-15T09:30:57;100631.78;;;27.48;33.50
6942;BME280;3510;43.200;27.920;2023-04-15T09:33:27;100625.72;;;27.46;34.05
6942;BME280;3510;43.200;27.920;2023-04-15T09:35:56;100651.22;;;27.88;34.17
6942;BME280;3510;43.200;27.920;2023-04-15T09:38:24;100645.53;;;28.21;32.77
6942;BME280;3510;43.200;27.920;2023-04-15T09:40:51;100644.53;;;28.07;32.96
6942;BME280;3510;43.200;27.920;2023-04-15T09:43:40;100605.72;;;28.07;33.71
6942;BME280;3510;43.200;27.920;2023-04-15T09:46:07;100634.69;;;28.61;33.10
6942;BME280;3510;43.200;27.920;2023-04-15T09:48:34;100646.59;;;28.37;33.90
6942;BME280;3510;43.200;27.920;2023-04-15T09:51:01;100630.81;;;29.32;31.67
6942;BME280;3510;43.200;27.920;2023-04-15T09:53:28;100640.00;;;28.81;32.82
6942;BME280;3510;43.200;27.920;2023-04-15T09:55:56;100613.00;;;27.64;34.41
6942;BME280;3510;43.200;27.920;2023-04-15T09:58:28;100660.66;;;27.15;33.99
6942;BME280;3510;43.200;27.920;2023-04-15T10:00:58;100652.28;;;27.34;34.71
6942;BME280;3510;43.200;27.920;2023-04-15T10:03:39;100649.59;;;28.94;32.69
6942;BME280;3510;43.200;27.920;2023-04-15T10:06:08;100640.53;;;29.79;31.31
6942;BME280;3510;43.200;27.920;2023-04-15T10:16:26;100653.31;;;29.37;32.24
6942;BME280;3510;43.200;27.920;2023-04-15T10:18:54;100661.03;;;29.28;31.92
6942;BME280;3510;43.200;27.920;2023-04-15T10:21:22;100648.28;;;29.63;31.31
6942;BME280;3510;43.200;27.920;2023-04-15T10:23:49;100663.16;;;30.35;29.88
6942;BME280;3510;43.200;27.920;2023-04-15T10:26:17;100641.50;;;30.50;30.12
6942;BME280;3510;43.200;27.920;2023-04-15T10:28:44;100605.88;;;29.60;30.73
6942;BME280;3510;43.200;27.920;2023-04-15T10:31:14;100585.50;;;28.65;31.80
6942;BME280;3510;43.200;27.920;2023-04-15T10:33:45;100627.81;;;28.63;32.07
6942;BME280;3510;43.200;27.920;2023-04-15T10:36:13;100643.94;;;29.70;31.57
6942;BME280;3510;43.200;27.920;2023-04-15T10:38:41;100631.31;;;28.77;32.60
6942;BME280;3510;43.200;27.920;2023-04-15T10:41:13;100629.94;;;29.28;31.74
6942;BME280;3510;43.200;27.920;2023-04-15T10:43:46;100641.22;;;29.44;31.27
6942;BME280;3510;43.200;27.920;2023-04-15T10:46:17;100616.16;;;28.16;32.70
6942;BME280;3510;43.200;27.920;2023-04-15T10:48:49;100639.31;;;28.01;33.26
6942;BME280;3510;43.200;27.920;2023-04-15T10:51:27;100617.78;;;29.18;31.70
6942;BME280;3510;43.200;27.920;2023-04-15T10:53:56;100639.09;;;28.76;32.04
6942;BME280;3510;43.200;27.920;2023-04-15T10:56:24;100608.59;;;27.56;33.93
6942;BME280;3510;43.200;27.920;2023-04-15T10:58:51;100636.06;;;27.46;34.12
6942;BME280;3510;43.200;27.920;2023-04-15T11:01:19;100625.09;;;27.00;35.37
6942;BME280;3510;43.200;27.920;2023-04-15T11:03:48;100596.00;;;27.82;33.72
6942;BME280;3510;43.200;27.920;2023-04-15T11:06:16;100621.81;;;27.80;34.16
6942;BME280;3510;43.200;27.920;2023-04-15T11:08:57;100634.03;;;26.14;37.72
6942;BME280;3510;43.200;27.920;2023-04-15T11:14:23;100633.09;;;25.67;38.25
6942;BME280;3510;43.200;27.920;2023-04-15T11:16:50;100624.72;;;26.74;35.92
6942;BME280;3510;43.200;27.920;2023-04-15T11:19:18;100636.47;;;27.78;34.52
6942;BME280;3510;43.200;27.920;2023-04-15T11:21:45;100622.91;;;28.02;34.12
6942;BME280;3510;43.200;27.920;2023-04-15T11:24:23;100621.16;;;27.98;34.12
6942;BME280;3510;43.200;27.920;2023-04-15T11:26:56;100638.66;;;28.23;33.52
6942;BME280;3510;43.200;27.920;2023-04-15T11:29:28;100604.56;;;27.81;34.05
6942;BME280;3510;43.200;27.920;2023-04-15T11:32:03;100639.97;;;27.82;34.31
6942;BME280;3510;43.200;27.920;2023-04-15T11:34:33;100599.63;;;27.27;34.12
6942;BME280;3510;43.200;27.920;2023-04-15T11:37:03;100634.88;;;27.21;34.60
6942;BME280;3510;43.200;27.920;2023-04-15T11:39:32;100644.69;;;27.46;34.14
6942;BME280;3510;43.200;27.920;2023-04-15T11:41:59;100643.13;;;27.59;34.14
6942;BME280;3510;43.200;27.920;2023-04-15T11:44:25;100644.75;;;26.92;35.25
6942;BME280;3510;43.200;27.920;2023-04-15T11:46:54;100621.34;;;27.40;34.27
6942;BME280;3510;43.200;27.920;2023-04-15T11:49:28;100613.72;;;27.53;34.01
6942;BME280;3510;43.200;27.920;2023-04-15T11:52:00;100610.41;;;27.63;33.82
6942;BME280;3510;43.200;27.920;2023-04-15T11:54:26;100645.09;;;27.79;33.51
6942;BME280;3510;43.200;27.920;2023-04-15T11:56:53;100628.38;;;27.52;33.82
6942;BME280;3510;43.200;27.920;2023-04-15T11:59:21;100622.31;;;27.50;33.59
6942;BME280;3510;43.200;27.920;2023-04-15T12:01:47;100622.22;;;27.44;33.63
6942;BME280;3510;43.200;27.920;2023-04-15T12:04:20;100623.72;;;27.25;33.98
6942;BME280;3510;43.200;27.920;2023-04-15T12:07:04;100575.00;;;26.89;33.76
6942;BME280;3510;43.200;27.920;2023-04-15T12:09:36;100625.47;;;27.97;32.58
6942;BME280;3510;43.200;27.920;2023-04-15T12:12:03;100633.91;;;27.80;32.89
6942;BME280;3510;43.200;27.920;2023-04-15T12:14:30;100634.78;;;28.75;31.29
6942;BME280;3510;43.200;27.920;2023-04-15T12:17:00;100640.50;;;29.68;29.66
6942;BME280;3510;43.200;27.920;2023-04-15T12:19:29;100591.78;;;27.94;32.21
6942;BME280;3510;43.200;27.920;2023-04-15T12:21:58;100617.53;;;27.14;33.76
6942;BME280;3510;43.200;27.920;2023-04-15T12:24:30;100625.00;;;26.94;33.93
6942;BME280;3510;43.200;27.920;2023-04-15T12:27:01;100632.91;;;28.52;31.44
6942;BME280;3510;43.200;27.920;2023-04-15T12:29:29;100627.41;;;26.82;34.28
6942;BME280;3510;43.200;27.920;2023-04-15T12:31:58;100631.53;;;29.00;31.25
6942;BME280;3510;43.200;27.920;2023-04-15T12:34:31;100636.31;;;30.51;28.50
6942;BME280;3510;43.200;27.920;2023-04-15T12:36:59;100578.91;;;31.40;26.98
6942;BME280;3510;43.200;27.920;2023-04-15T12:39:29;100636.25;;;31.13;27.79
6942;BME280;3510;43.200;27.920;2023-04-15T12:41:57;100641.50;;;30.65;28.29
6942;BME280;3510;43.200;27.920;2023-04-15T12:44:25;100638.81;;;29.96;29.94
6942;BME280;3510;43.200;27.920;2023-04-15T12:46:53;100642.69;;;27.95;32.16
6942;BME280;3510;43.200;27.920;2023-04-15T12:49:20;100645.09;;;27.12;33.76
6942;BME280;3510;43.200;27.920;2023-04-15T12:51:50;100595.47;;;26.76;33.54
6942;BME280;3510;43.200;27.920;2023-04-15T12:54:18;100645.50;;;26.31;35.10
6942;BME280;3510;43.200;27.920;2023-04-15T12:56:47;100632.50;;;26.25;34.66
6942;BME280;3510;43.200;27.920;2023-04-15T12:59:15;100620.47;;;25.79;35.29
6942;BME280;3510;43.200;27.920;2023-04-15T13:01:43;100617.16;;;25.06;36.73
6942;BME280;3510;43.200;27.920;2023-04-15T13:04:10;100577.50;;;24.98;36.49
6942;BME280;3510;43.200;27.920;2023-04-15T13:06:38;100583.97;;;25.61;35.52
6942;BME280;3510;43.200;27.920;2023-04-15T13:09:05;100641.75;;;26.64;34.02
6942;BME280;3510;43.200;27.920;2023-04-15T13:11:32;100633.03;;;27.14;33.07
6942;BME280;3510;43.200;27.920;2023-04-15T13:14:03;100609.34;;;25.81;34.69
6942;BME280;3510;43.200;27.920;2023-04-15T13:16:30;100613.47;;;25.75;34.31
6942;BME280;3510;43.200;27.920;2023-04-15T13:18:57;100504.13;;;25.64;34.12
6942;BME280;3510;43.200;27.920;2023-04-15T13:21:24;100634.19;;;26.76;32.51
6942;BME280;3510;43.200;27.920;2023-04-15T13:23:52;100633.63;;;26.41;33.05
6942;BME280;3510;43.200;27.920;2023-04-15T13:26:19;100630.78;;;26.27;33.78
6942;BME280;3510;43.200;27.920;2023-04-15T13:28:47;100635.81;;;27.27;32.59
6942;BME280;3510;43.200;27.920;2023-04-15T13:31:15;100620.78;;;27.00;32.37
6942;BME280;3510;43.200;27.920;2023-04-15T13:33:43;100540.94;;;26.55;32.09
6942;BME280;3510;43.200;27.920;2023-04-15T13:36:10;100609.03;;;25.68;33.73
6942;BME280;3510;43.200;27.920;2023-04-15T13:38:36;100600.84;;;25.87;33.67
6942;BME280;3510;43.200;27.920;2023-04-15T13:41:04;100642.91;;;26.31;32.69
6942;BME280;3510;43.200;27.920;2023-04-15T13:43:30;100614.69;;;26.41;32.67
6942;BME280;3510;43.200;27.920;2023-04-15T13:45:58;100641.00;;;27.29;32.09
6942;BME280;3510;43.200;27.920;2023-04-15T13:48:27;100649.41;;;27.78;31.17
6942;BME280;3510;43.200;27.920;2023-04-15T13:50:54;100594.06;;;27.68;31.14
6942;BME280;3510;43.200;27.920;2023-04-15T13:53:21;100586.50;;;27.84;30.53
6942;BME280;3510;43.200;27.920;2023-04-15T13:55:48;100642.34;;;27.68;31.29
6942;BME280;3510;43.200;27.920;2023-04-15T13:58:15;100592.28;;;27.61;31.33
6942;BME280;3510;43.200;27.920;2023-04-15T14:00:42;100612.13;;;26.98;33.17
6942;BME280;3510;43.200;27.920;2023-04-15T14:03:09;100605.25;;;26.97;32.57
6942;BME280;3510;43.200;27.920;2023-04-15T14:05:38;100650.31;;;27.16;32.96
6942;BME280;3510;43.200;27.920;2023-04-15T14:08:05;100619.03;;;26.98;33.15
6942;BME280;3510;43.200;27.920;2023-04-15T14:10:31;100613.91;;;27.01;32.87
6942;BME280;3510;43.200;27.920;2023-04-15T14:12:58;100606.34;;;26.56;33.08
6942;BME280;3510;43.200;27.920;2023-04-15T14:15:27;100659.13;;;26.24;34.73
6942;BME280;3510;43.200;27.920;2023-04-15T14:17:54;100660.06;;;25.42;37.17
6942;BME280;3510;43.200;27.920;2023-04-15T14:20:21;100659.63;;;26.05;36.50
6942;BME280;3510;43.200;27.920;2023-04-15T14:22:49;100666.66;;;26.14;35.81
6942;BME280;3510;43.200;27.920;2023-04-15T14:25:16;100621.72;;;26.48;35.05
6942;BME280;3510;43.200;27.920;2023-04-15T14:27:42;100669.00;;;26.47;35.17